This is the latest recevied weather packets stored in our database for station/object WC4PEM-11. If no packets are shown the sender has not sent any weather packets the latest 10 day(s).
| Time | Temp. | Humidity | Pressure | Rain* | Wind** | Luminosity | Snow |
|---|---|---|---|---|---|---|---|
| 1787952493 | 23.89° C | 93% | 1017.8 hPa | 0 mm | - | - | - |
| 1787952193 | 24.44° C | 92% | 1017.8 hPa | 0 mm | - | - | - |
| 1787951893 | 25° C | 89% | 1017.5 hPa | 0 mm | - | - | - |
| 1787951593 | 25.56° C | 88% | 1017.6 hPa | 0 mm | - | - | - |
| 1787951293 | 26.11° C | 89% | 1017.4 hPa | 0 mm | - | - | - |
| 1787950993 | 26.11° C | 87% | 1016.9 hPa | 0 mm | - | - | - |
| 1787950904 | 26.11° C | 88% | 1016.3 hPa | 0 mm | - | - | - |
| 1787950693 | 26.11° C | 88% | 1016.3 hPa | 0 mm | - | - | - |
| 1787950626 | 26.11° C | 87% | 1015.9 hPa | 0 mm | - | - | - |
| 1787950393 | 26.11° C | 87% | 1015.9 hPa | 0 mm | - | - | - |
| 1787950093 | 26.67° C | 86% | 1015.8 hPa | 0 mm | - | - | - |
| 1787949793 | 26.67° C | 84% | 1015.8 hPa | 0 mm | - | - | - |
| 1787949689 | 27.22° C | 83% | 1015.9 hPa | 0 mm | - | - | - |
| 1787949493 | 27.22° C | 83% | 1015.9 hPa | 0 mm | - | - | - |
| 1787949193 | 28.33° C | 80% | 1016 hPa | 0 mm | - | - | - |
| 1787948893 | 30° C | 77% | 1015.9 hPa | 0 mm | - | - | - |
| 1787948593 | 31.11° C | 72% | 1015.8 hPa | 0 mm | - | - | - |
| 1787948293 | 31.67° C | 68% | 1015.8 hPa | 0 mm | - | - | - |
| 1787948140 | 32.22° C | 66% | 1016 hPa | 0 mm | - | - | - |
| 1787947993 | 32.22° C | 66% | 1016 hPa | 0 mm | - | - | - |
| 1787947693 | 32.78° C | 63% | 1016.1 hPa | 0 mm | - | - | - |
| 1787947393 | 33.33° C | 59% | 1016.1 hPa | 0 mm | - | - | - |
| 1787947093 | 33.33° C | 58% | 1016.1 hPa | 0 mm | - | - | - |
| 1787946793 | 33.89° C | 58% | 1016.1 hPa | 0 mm | - | - | - |
| 1787946493 | 33.89° C | 60% | 1016.1 hPa | 0 mm | - | - | - |
* Rain latest hour (hover to see other rain measurements)
** Current wind speed in m/s (hover to see current wind gust speed)